Airfield :
LOGIN :

Register | Disclaimer

   EN    FR    IT 

 










Legend :    VFR   Marginal VFR   IFR   Intensive IFR   Very Intensive IFR
Visi :
Ceiling :
>= 8 km
>= 3000ft
5 to 8 km
1000 to 3000 ft
1500m to 5 km
500 to 1000 ft
800 to 1500m
200 to 500 ft
< 800m
< 200 ft
Symbols :   Thunderstorms  Fog  Heavy snow  Heavy precipitations  Wind > 20 kt
SIGMETs :     Misc.  Thunderstorms  Icing  Turbulence  Mountain Waves  Volcanic Ashes







- Airport Elevation : 37 ft


EHVL - Vlieland Heliport

CURRENT METAR :
  • 200729Z AUTO 24014KT 9999 -RA FEW013 SCT016 BKN019 06/04 Q1016 WHT

EXPIRED METARs :
  • 200715Z AUTO 24013KT 9999 DZ SCT013 BKN016 OVC020 06/04 Q1016 GRN
  • 200655Z AUTO 25015KT 9999 +DZ SCT019 BKN023 BKN026 06/04 Q1016 WHT
  • 200642Z AUTO 25016KT 9000 +DZ FEW014 SCT020 OVC033 06/04 Q1016 WHT
  • 200625Z AUTO 25018KT 9999 DZ SCT016 BKN020 BKN025 06/03 Q1016 WHT
  • 200556Z AUTO 27015KT 9999 +DZ SCT021 BKN024 OVC030 06/03 Q1016 WHT
  • 200555Z AUTO 26015KT 9999 +DZ FEW016 SCT022 BKN027 06/03 Q1016 WHT
  • 200550Z AUTO 27016KT 9999 +DZ FEW016 SCT021 BKN027 06/03 Q1016 WHT
  • 200537Z AUTO 27018KT 8000 +DZ BKN019 BKN026 OVC029 06/04 Q1016 WHT
  • 200525Z AUTO 27016KT 9999 +DZ FEW015 SCT028 OVC031 06/03 Q1017 BLU
  • 200509Z AUTO 27018KT 9999 DZ FEW001 SCT020 OVC030 07/03 Q1017 WHT
  • 200504Z AUTO 28018KT 9999 DZ FEW001 BKN029 OVC035 07/03 Q1017 BLU
  • 200500Z AUTO 28018KT 9999 DZ FEW001 SCT020 OVC029 07/03 Q1017 WHT
  • 200446Z AUTO 29020KT 6000 +DZ FEW027 SCT032 OVC037 07/02 Q1017 WHT

Expired Forecast.
No reported NOTAMs for that airfield.



MET'MAP, your aeronautical weather chart ! - Copyright ORBIFLY December 2007 - Disclaimer

ORBIFLY MET'MAP TEAM :

Programming & Development : Alexandra Zaïnal
Concept & Development : Baudouin d'Aumeries
Co-Development & Prog : Marc-Olivier Méhu
Technical & hardware support : Manuel Goepfert

Contact : metmap@orbifly.com




SOURCES & CREDITS :

   NOAA